Terminal Aerodrome Forecast
Issued by NWS Charleston, WV

Current Version | Previous Version | Graphics & Text | Print | Product List | Glossary On
Versions: 1 2 3 4 5 6 7 8 9 10 11 12 13 14 15 16 17 18 19 20 21 22 23 24 25 26 27 28 29 30 31 32
000
FTUS41 KRLX 191400 AAA
TAFPKB
TAF AMD
KPKB 191400Z 1914/2012 00000KT 4SM RA BR OVC025
      TEMPO 1914/1915 6SM -SHRA BKN006 OVC020
     FM191500 15006KT 6SM SHRA OVC025
     FM191700 16008KT P6SM BKN025
     FM192100 17007KT P6SM BKN035
     FM200700 00000KT P6SM BKN030
     FM200900 00000KT 5SM BR BKN025
     FM201100 VRB03KT 2SM BR BKN025=

USA.gov is the U.S. government's official web portal to all federal, state and local government web resources and services.